Time;durP1;ratioP1;P1;durP2;ratioP2;P2;SDS_P1;SDS_P2;PMS_P1;PMS_P2;Temp;Humidity;BMP_temperature;BMP_pressure;BME280_temperature;BME280_humidity;BME280_pressure;Samples;Min_cycle;Max_cycle;Signal;HPM_P1;HPM_P2
2022/08/15 00:00:20;;;;;;;1.15;1.05;;;;;;;;;;4214164;28;20040;-61
2022/08/15 00:02:22;;;;;;;0.98;0.98;;;;;;;;;;4214365;28;20040;-60
2022/08/15 00:04:23;;;;;;;1.10;1.00;;;;;;;;;;4214467;28;20421;-60
2022/08/15 00:06:32;;;;;;;0.95;0.82;;;;;;;;;;4206820;28;20090;-60
2022/08/15 00:08:35;;;;;;;1.40;0.88;;;;;;;;;;4194608;28;20090;-60
2022/08/15 00:10:39;;;;;;;1.05;0.90;;;;;;;;;;4196589;28;20032;-60
2022/08/15 00:12:40;;;;;;;1.08;0.80;;;;;;;;;;4197028;28;20032;-59
2022/08/15 00:14:44;;;;;;;1.38;0.90;;;;;;;;;;4197457;28;20043;-60
2022/08/15 00:16:45;;;;;;;3.25;1.10;;;;;;;;;;4200150;28;20054;-60
2022/08/15 00:18:47;;;;;;;2.17;0.90;;;;;;;;;;4200248;28;20074;-59
2022/08/15 00:20:51;;;;;;;3.20;1.00;;;;;;;;;;4199629;28;20036;-60
2022/08/15 00:22:52;;;;;;;1.20;1.10;;;;;;;;;;4200098;28;20029;-59
2022/08/15 00:24:54;;;;;;;1.10;1.00;;;;;;;;;;4199366;28;20032;-59
2022/08/15 00:26:56;;;;;;;1.25;1.13;;;;;;;;;;4199749;28;20062;-61
2022/08/15 00:28:57;;;;;;;1.10;0.93;;;;;;;;;;4200281;28;20041;-60
2022/08/15 00:30:58;;;;;;;0.95;0.80;;;;;;;;;;4199641;28;20541;-61
2022/08/15 00:32:59;;;;;;;2.03;1.10;;;;;;;;;;4200263;28;20094;-60
2022/08/15 00:35:00;;;;;;;0.70;0.70;;;;;;;;;;4199762;28;20055;-60
2022/08/15 00:37:05;;;;;;;1.48;0.77;;;;;;;;;;4199833;28;20066;-61
2022/08/15 00:39:09;;;;;;;1.20;0.80;;;;;;;;;;4200117;28;20089;-60
2022/08/15 00:43:33;;;;;;;0.82;0.80;;;;;;;;;;4200366;28;20037;-60
2022/08/15 00:45:34;;;;;;;0.75;0.73;;;;;;;;;;4199595;28;20418;-60
2022/08/15 00:47:35;;;;;;;0.88;0.88;;;;;;;;;;4203824;28;20511;-60
2022/08/15 00:49:36;;;;;;;0.98;0.95;;;;;;;;;;4210155;28;20031;-60
2022/08/15 00:51:49;;;;;;;2.20;1.23;;;;;;;;;;4214223;28;20479;-60
2022/08/15 00:53:52;;;;;;;0.70;0.70;;;;;;;;;;4216462;28;20039;-60
2022/08/15 00:55:53;;;;;;;2.30;1.70;;;;;;;;;;4215308;28;20024;-59
2022/08/15 00:57:55;;;;;;;1.40;1.13;;;;;;;;;;4216605;28;20369;-59
2022/08/15 00:59:57;;;;;;;1.90;1.10;;;;;;;;;;4215409;28;20036;-59
2022/08/15 01:02:00;;;;;;;0.98;0.80;;;;;;;;;;4212294;28;20028;-60
2022/08/15 01:04:03;;;;;;;1.73;0.90;;;;;;;;;;4210927;28;20047;-59
2022/08/15 01:06:04;;;;;;;1.15;1.00;;;;;;;;;;4215034;28;20074;-60
2022/08/15 01:08:05;;;;;;;2.78;1.00;;;;;;;;;;4211142;28;20071;-60
2022/08/15 01:10:07;;;;;;;4.20;0.90;;;;;;;;;;4210712;28;20020;-59
2022/08/15 01:12:08;;;;;;;2.42;0.82;;;;;;;;;;4211860;28;20098;-60
2022/08/15 01:14:09;;;;;;;1.58;0.90;;;;;;;;;;4213223;28;20024;-61
2022/08/15 01:16:10;;;;;;;1.00;0.90;;;;;;;;;;4210517;28;20059;-60
2022/08/15 01:18:12;;;;;;;2.85;1.10;;;;;;;;;;4212102;28;20081;-60
2022/08/15 01:20:16;;;;;;;1.77;1.10;;;;;;;;;;4205750;28;22061;-59
2022/08/15 01:22:47;;;;;;;3.17;1.10;;;;;;;;;;4208907;28;20066;-60
2022/08/15 01:24:55;;;;;;;4.40;1.27;;;;;;;;;;4175309;28;20040;-60
2022/08/15 01:26:56;;;;;;;1.27;1.08;;;;;;;;;;4212111;28;20473;-60
2022/08/15 01:28:57;;;;;;;2.47;1.17;;;;;;;;;;4210269;28;20040;-59
2022/08/15 01:31:03;;;;;;;1.73;0.93;;;;;;;;;;4207102;28;20044;-60
2022/08/15 01:33:05;;;;;;;2.90;0.90;;;;;;;;;;4209418;28;20036;-60
2022/08/15 01:35:06;;;;;;;4.50;1.20;;;;;;;;;;4213480;28;20032;-59
2022/08/15 01:37:07;;;;;;;3.35;1.10;;;;;;;;;;4211904;28;20364;-59
2022/08/15 01:39:07;;;;;;;5.13;1.30;;;;;;;;;;4215228;28;20039;-60
2022/08/15 01:41:27;;;;;;;5.57;1.48;;;;;;;;;;4214241;28;20421;-59
2022/08/15 01:43:32;;;;;;;2.60;1.42;;;;;;;;;;4210518;28;20090;-60
2022/08/15 01:45:34;;;;;;;;;;;;;;;;;;4215287;28;20020;-60
2022/08/15 01:47:56;;;;;;;8.05;1.58;;;;;;;;;;4215252;28;19924;-61
2022/08/15 01:50:07;;;;;;;5.43;1.30;;;;;;;;;;4214218;28;20090;-60
2022/08/15 01:52:08;;;;;;;4.63;1.42;;;;;;;;;;4217261;28;20044;-59
2022/08/15 01:54:12;;;;;;;7.07;1.30;;;;;;;;;;4214392;28;20036;-59
2022/08/15 01:56:30;;;;;;;5.03;1.20;;;;;;;;;;4212009;28;20093;-60
2022/08/15 01:58:35;;;;;;;2.42;1.00;;;;;;;;;;4206918;28;20138;-59
2022/08/15 02:00:37;;;;;;;6.05;1.30;;;;;;;;;;4207105;28;20168;-60
2022/08/15 02:02:41;;;;;;;5.05;1.20;;;;;;;;;;4207881;28;20118;-60
2022/08/15 02:04:44;;;;;;;4.60;1.40;;;;;;;;;;4210256;28;20028;-60
2022/08/15 02:06:46;;;;;;;4.85;1.30;;;;;;;;;;4206682;28;20028;-60
2022/08/15 02:08:47;;;;;;;4.32;1.23;;;;;;;;;;4210203;28;20044;-60
2022/08/15 02:10:48;;;;;;;3.85;1.27;;;;;;;;;;4208580;28;20036;-59
2022/08/15 02:12:49;;;;;;;5.00;1.23;;;;;;;;;;4209675;28;20084;-59
2022/08/15 02:14:49;;;;;;;3.85;1.42;;;;;;;;;;4208835;28;20119;-60
2022/08/15 02:16:53;;;;;;;4.60;1.95;;;;;;;;;;4205054;28;20035;-61
2022/08/15 02:18:54;;;;;;;6.18;1.50;;;;;;;;;;4201747;28;20036;-60
2022/08/15 02:20:57;;;;;;;7.50;1.33;;;;;;;;;;4213976;28;20395;-60
2022/08/15 02:22:58;;;;;;;2.63;1.13;;;;;;;;;;4202715;28;20090;-60
2022/08/15 02:24:59;;;;;;;3.10;1.10;;;;;;;;;;4206019;28;20040;-60
2022/08/15 02:27:00;;;;;;;3.40;1.30;;;;;;;;;;4210084;28;20119;-60
2022/08/15 02:29:01;;;;;;;5.15;1.50;;;;;;;;;;4212200;28;20059;-60
2022/08/15 02:31:15;;;;;;;2.63;1.38;;;;;;;;;;4205653;28;20028;-62
2022/08/15 02:33:16;;;;;;;3.92;1.58;;;;;;;;;;4206314;28;20040;-61
2022/08/15 02:35:17;;;;;;;3.83;1.25;;;;;;;;;;4209125;28;20064;-60
2022/08/15 02:37:18;;;;;;;5.63;1.38;;;;;;;;;;4212541;28;20028;-61
2022/08/15 02:39:19;;;;;;;4.00;1.10;;;;;;;;;;4207462;28;20536;-61
2022/08/15 02:41:24;;;;;;;7.18;1.08;;;;;;;;;;4213488;28;20062;-60
2022/08/15 02:43:25;;;;;;;;;;;;;;;;;;4214625;28;20031;-61
2022/08/15 02:45:26;;;;;;;5.72;1.35;;;;;;;;;;4212059;28;19908;-60
2022/08/15 02:47:34;;;;;;;8.65;1.80;;;;;;;;;;4214321;28;20051;-61
2022/08/15 02:49:38;;;;;;;7.90;1.30;;;;;;;;;;4212866;28;20036;-59
2022/08/15 02:51:40;;;;;;;7.95;1.48;;;;;;;;;;4204099;28;20035;-59
2022/08/15 02:53:43;;;;;;;9.98;2.40;;;;;;;;;;4213637;28;20020;-59
2022/08/15 02:55:46;;;;;;;5.32;1.67;;;;;;;;;;4213600;28;20117;-60
2022/08/15 02:57:47;;;;;;;8.32;1.80;;;;;;;;;;4213877;28;20025;-59
2022/08/15 02:59:48;;;;;;;4.47;1.52;;;;;;;;;;4213642;28;20036;-60
2022/08/15 03:01:49;;;;;;;9.80;1.42;;;;;;;;;;4213411;28;20028;-60
2022/08/15 03:03:52;;;;;;;4.13;1.50;;;;;;;;;;4207240;28;20081;-60
2022/08/15 03:05:52;;;;;;;4.18;1.60;;;;;;;;;;4211740;28;20028;-60
2022/08/15 03:07:54;;;;;;;4.70;1.52;;;;;;;;;;4210421;28;20040;-60
2022/08/15 03:09:58;;;;;;;12.85;1.80;;;;;;;;;;4209741;28;20057;-61
2022/08/15 03:11:59;;;;;;;5.67;1.60;;;;;;;;;;4212257;28;20060;-61
2022/08/15 03:14:00;;;;;;;4.38;1.30;;;;;;;;;;4207636;28;20032;-60
2022/08/15 03:16:06;;;;;;;8.18;1.42;;;;;;;;;;4210780;28;20105;-60
2022/08/15 03:18:10;;;;;;;4.63;1.40;;;;;;;;;;4207812;28;20032;-61
2022/08/15 03:20:11;;;;;;;12.73;1.80;;;;;;;;;;4213007;28;20085;-59
2022/08/15 03:22:12;;;;;;;1.52;1.08;;;;;;;;;;4214381;28;20077;-60
2022/08/15 03:24:13;;;;;;;6.20;1.58;;;;;;;;;;4213789;28;20114;-60
2022/08/15 03:26:18;;;;;;;2.97;1.45;;;;;;;;;;4213625;28;20100;-60
2022/08/15 03:28:22;;;;;;;2.83;1.50;;;;;;;;;;4210154;28;20047;-60
2022/08/15 03:30:23;;;;;;;4.43;1.20;;;;;;;;;;4213161;28;20329;-61
2022/08/15 03:32:23;;;;;;;4.32;1.60;;;;;;;;;;4210270;28;20040;-61
2022/08/15 03:34:26;;;;;;;4.70;1.38;;;;;;;;;;4213333;28;20036;-60
2022/08/15 03:36:29;;;;;;;5.95;1.45;;;;;;;;;;4209060;28;20036;-60
2022/08/15 03:38:30;;;;;;;5.85;1.17;;;;;;;;;;4213668;28;20100;-61
2022/08/15 03:40:32;;;;;;;3.03;1.63;;;;;;;;;;4213768;28;20051;-60
2022/08/15 03:42:33;;;;;;;3.40;1.13;;;;;;;;;;4211624;28;20040;-61
2022/08/15 03:44:34;;;;;;;2.58;1.20;;;;;;;;;;4201936;28;20369;-60
2022/08/15 03:46:36;;;;;;;2.05;1.00;;;;;;;;;;4203142;28;20039;-61
2022/08/15 03:48:39;;;;;;;8.02;1.48;;;;;;;;;;4213431;28;20040;-61
2022/08/15 03:50:40;;;;;;;4.55;1.25;;;;;;;;;;4210568;28;20020;-61
2022/08/15 03:52:51;;;;;;;8.25;1.40;;;;;;;;;;4213881;28;20036;-59
2022/08/15 03:54:53;;;;;;;3.08;1.10;;;;;;;;;;4216620;28;20032;-59
2022/08/15 03:56:54;;;;;;;6.82;1.20;;;;;;;;;;4216199;28;20032;-60
2022/08/15 03:58:56;;;;;;;2.42;1.30;;;;;;;;;;4210504;28;20046;-61
2022/08/15 04:00:58;;;;;;;2.42;1.50;;;;;;;;;;4216313;28;20493;-60
2022/08/15 04:03:12;;;;;;;4.22;1.35;;;;;;;;;;4214822;28;20036;-60
2022/08/15 04:05:13;;;;;;;2.80;1.20;;;;;;;;;;4213986;28;20043;-61
2022/08/15 04:07:15;;;;;;;1.98;1.05;;;;;;;;;;4216921;28;20448;-61
2022/08/15 04:09:15;;;;;;;2.65;1.25;;;;;;;;;;4216444;28;20483;-61
2022/08/15 04:11:17;;;;;;;4.43;1.30;;;;;;;;;;4216379;28;20089;-61
2022/08/15 04:13:24;;;;;;;3.58;1.30;;;;;;;;;;4216652;28;20101;-60
2022/08/15 04:15:27;;;;;;;6.10;1.20;;;;;;;;;;4216255;28;20548;-60
2022/08/15 04:17:28;;;;;;;6.03;1.50;;;;;;;;;;4216621;28;20052;-61
2022/08/15 04:19:29;;;;;;;3.42;1.27;;;;;;;;;;4216921;28;20041;-60
2022/08/15 04:21:30;;;;;;;3.83;1.10;;;;;;;;;;4211425;28;20115;-61
2022/08/15 04:23:31;;;;;;;3.97;1.42;;;;;;;;;;4213213;28;20016;-61
2022/08/15 04:25:33;;;;;;;3.65;1.20;;;;;;;;;;4216435;28;20069;-64
2022/08/15 04:27:34;;;;;;;3.97;1.30;;;;;;;;;;4216320;28;20093;-60
2022/08/15 04:29:35;;;;;;;3.13;1.20;;;;;;;;;;4212249;28;20044;-60
2022/08/15 04:31:37;;;;;;;2.03;1.00;;;;;;;;;;4213813;28;20028;-61
2022/08/15 04:33:38;;;;;;;3.90;1.10;;;;;;;;;;4215679;28;20479;-59
2022/08/15 04:35:40;;;;;;;1.98;1.27;;;;;;;;;;4214972;28;20118;-60
2022/08/15 04:37:41;;;;;;;2.80;0.98;;;;;;;;;;4216000;28;20032;-60
2022/08/15 04:39:42;;;;;;;2.58;1.27;;;;;;;;;;4211772;28;20032;-59
2022/08/15 04:41:45;;;;;;;4.10;1.13;;;;;;;;;;4216119;28;20075;-59
2022/08/15 04:43:46;;;;;;;2.13;1.00;;;;;;;;;;4215868;28;20085;-60
2022/08/15 04:45:51;;;;;;;5.25;0.90;;;;;;;;;;4216159;28;20012;-60
2022/08/15 04:47:52;;;;;;;3.08;1.35;;;;;;;;;;4216122;28;20508;-60
2022/08/15 04:49:53;;;;;;;2.92;1.10;;;;;;;;;;4215569;28;20044;-60
2022/08/15 04:51:53;;;;;;;4.85;1.17;;;;;;;;;;4215402;28;20098;-61
2022/08/15 04:53:54;;;;;;;4.35;1.40;;;;;;;;;;4216170;28;20101;-60
2022/08/15 04:55:56;;;;;;;2.78;1.17;;;;;;;;;;4211483;28;20048;-60
2022/08/15 04:57:58;;;;;;;1.02;0.80;;;;;;;;;;4215452;28;20089;-60
2022/08/15 04:59:59;;;;;;;2.13;1.05;;;;;;;;;;4215685;28;20085;-60
2022/08/15 05:01:59;;;;;;;3.25;1.15;;;;;;;;;;4215739;28;20071;-60
2022/08/15 05:04:00;;;;;;;1.70;1.08;;;;;;;;;;4215403;28;20039;-60
2022/08/15 05:06:03;;;;;;;2.85;1.02;;;;;;;;;;4215745;28;20036;-60
2022/08/15 05:08:04;;;;;;;1.45;1.05;;;;;;;;;;4215274;28;20040;-60
2022/08/15 05:10:05;;;;;;;2.38;1.27;;;;;;;;;;4214929;28;20032;-59
2022/08/15 05:12:09;;;;;;;1.63;1.10;;;;;;;;;;4212829;28;20036;-60
2022/08/15 05:14:10;;;;;;;2.10;0.90;;;;;;;;;;4215720;28;20036;-60
2022/08/15 05:16:12;;;;;;;1.30;0.98;;;;;;;;;;4215459;28;20024;-60
2022/08/15 05:18:13;;;;;;;2.33;0.88;;;;;;;;;;4215772;28;20040;-60
2022/08/15 05:20:15;;;;;;;2.88;1.15;;;;;;;;;;4202603;28;20525;-60
2022/08/15 05:22:17;;;;;;;2.13;0.98;;;;;;;;;;4215524;28;20101;-60
2022/08/15 05:24:18;;;;;;;1.42;0.95;;;;;;;;;;4215679;28;20036;-60
2022/08/15 05:26:19;;;;;;;1.13;0.75;;;;;;;;;;4209730;28;20032;-60
2022/08/15 05:28:20;;;;;;;4.13;1.10;;;;;;;;;;4210365;28;20044;-60
2022/08/15 05:30:22;;;;;;;2.15;0.88;;;;;;;;;;4198622;28;20032;-60
2022/08/15 05:32:23;;;;;;;2.05;0.93;;;;;;;;;;4211694;28;20032;-60
2022/08/15 05:34:24;;;;;;;3.90;1.00;;;;;;;;;;4214850;28;20071;-59
2022/08/15 05:36:25;;;;;;;1.45;0.80;;;;;;;;;;4214864;28;20092;-60
2022/08/15 05:38:38;;;;;;;3.03;0.90;;;;;;;;;;4214967;28;20036;-60
2022/08/15 05:40:44;;;;;;;0.90;0.80;;;;;;;;;;4214931;28;20089;-59
2022/08/15 05:42:50;;;;;;;1.17;1.02;;;;;;;;;;4215042;28;20097;-60
2022/08/15 05:45:20;;;;;;;2.92;0.95;;;;;;;;;;4215478;28;20035;-60
2022/08/15 05:47:31;;;;;;;1.00;0.60;;;;;;;;;;4217139;28;20129;-60
2022/08/15 05:49:41;;;;;;;1.58;0.90;;;;;;;;;;4214636;28;20048;-60
2022/08/15 05:51:52;;;;;;;2.33;0.80;;;;;;;;;;4205271;28;20105;-59
2022/08/15 05:54:02;;;;;;;0.98;0.80;;;;;;;;;;4215396;28;20046;-59
2022/08/15 05:56:17;;;;;;;1.77;0.90;;;;;;;;;;4213893;28;20086;-59
2022/08/15 05:58:30;;;;;;;1.48;0.88;;;;;;;;;;4201892;28;20039;-59
2022/08/15 06:00:35;;;;;;;2.58;1.02;;;;;;;;;;4213157;28;20097;-60
2022/08/15 06:02:57;;;;;;;1.50;0.80;;;;;;;;;;4213517;28;20024;-60
2022/08/15 06:05:00;;;;;;;0.93;0.80;;;;;;;;;;4214653;28;20066;-59
2022/08/15 06:07:06;;;;;;;1.95;1.00;;;;;;;;;;4214228;28;20093;-59
2022/08/15 06:09:30;;;;;;;0.88;0.70;;;;;;;;;;4214684;28;20047;-60
2022/08/15 06:11:46;;;;;;;1.08;0.80;;;;;;;;;;4205981;28;20097;-60
2022/08/15 06:13:51;;;;;;;0.88;0.70;;;;;;;;;;4213898;28;20097;-60
2022/08/15 06:15:52;;;;;;;;;;;;;;;;;;4214987;28;20028;-60
2022/08/15 06:18:01;;;;;;;1.45;0.70;;;;;;;;;;4212830;28;19999;-61
2022/08/15 06:20:03;;;;;;;0.65;0.65;;;;;;;;;;4214659;28;20093;-59
2022/08/15 06:22:10;;;;;;;1.17;0.90;;;;;;;;;;4214562;28;20032;-60
2022/08/15 06:24:26;;;;;;;1.17;0.70;;;;;;;;;;4212994;28;20074;-60
2022/08/15 06:26:36;;;;;;;1.17;0.80;;;;;;;;;;4214154;28;20540;-60
2022/08/15 06:28:42;;;;;;;2.90;0.75;;;;;;;;;;4202886;28;20557;-60
2022/08/15 06:30:52;;;;;;;1.45;0.80;;;;;;;;;;4210651;28;20456;-60
2022/08/15 06:33:12;;;;;;;1.15;0.90;;;;;;;;;;4214098;28;20433;-60
2022/08/15 06:35:41;;;;;;;1.00;0.80;;;;;;;;;;4213813;28;20036;-60
2022/08/15 06:37:42;;;;;;;1.25;0.88;;;;;;;;;;4213456;28;20036;-60
2022/08/15 06:39:48;;;;;;;2.17;0.77;;;;;;;;;;4205602;28;20491;-60
2022/08/15 06:41:53;;;;;;;2.33;0.63;;;;;;;;;;4212585;28;20133;-60
2022/08/15 06:43:56;;;;;;;1.30;1.00;;;;;;;;;;4214025;28;20036;-60
2022/08/15 06:45:59;;;;;;;0.70;0.70;;;;;;;;;;4211793;28;20094;-60
2022/08/15 06:48:05;;;;;;;1.83;0.65;;;;;;;;;;4213645;28;20125;-60
2022/08/15 06:50:09;;;;;;;1.95;0.93;;;;;;;;;;4213378;28;20051;-60
2022/08/15 06:52:10;;;;;;;1.50;0.80;;;;;;;;;;4213466;28;20434;-60
2022/08/15 06:54:22;;;;;;;0.75;0.70;;;;;;;;;;4213718;28;20024;-59
2022/08/15 06:56:27;;;;;;;0.60;0.60;;;;;;;;;;4213062;28;20093;-59
2022/08/15 06:58:46;;;;;;;3.08;1.20;;;;;;;;;;4213863;28;20436;-59
2022/08/15 07:00:51;;;;;;;3.05;0.70;;;;;;;;;;4211501;28;20528;-60
2022/08/15 07:02:52;;;;;;;0.70;0.70;;;;;;;;;;4212819;28;20430;-60
2022/08/15 07:05:12;;;;;;;0.73;0.68;;;;;;;;;;4213424;28;20035;-60
2022/08/15 07:07:17;;;;;;;1.15;0.75;;;;;;;;;;4206522;28;20089;-59
2022/08/15 07:09:26;;;;;;;1.55;1.20;;;;;;;;;;4206230;28;20078;-59
2022/08/15 07:11:37;;;;;;;0.60;0.60;;;;;;;;;;4212349;28;20028;-60
2022/08/15 07:13:41;;;;;;;1.45;0.65;;;;;;;;;;4213752;28;20032;-60
2022/08/15 07:15:45;;;;;;;1.27;0.75;;;;;;;;;;4213618;28;20032;-60
2022/08/15 07:17:49;;;;;;;1.75;0.70;;;;;;;;;;4212494;28;20113;-60
2022/08/15 07:19:51;;;;;;;;;;;;;;;;;;4213427;28;20441;-60
2022/08/15 07:21:52;;;;;;;1.58;0.60;;;;;;;;;;4213881;28;19962;-60
2022/08/15 07:24:09;;;;;;;2.58;0.90;;;;;;;;;;4213583;28;20028;-59
2022/08/15 07:26:11;;;;;;;1.70;0.70;;;;;;;;;;4213100;28;20102;-59
2022/08/15 07:28:16;;;;;;;1.30;0.70;;;;;;;;;;4213862;28;20089;-59
2022/08/15 07:30:20;;;;;;;1.00;0.80;;;;;;;;;;4213333;28;20478;-60
2022/08/15 07:32:43;;;;;;;1.25;0.63;;;;;;;;;;4213258;28;20028;-60
2022/08/15 07:34:52;;;;;;;1.33;0.60;;;;;;;;;;4207266;28;20028;-60
2022/08/15 07:36:58;;;;;;;0.75;0.73;;;;;;;;;;4212984;28;20546;-60
2022/08/15 07:39:00;;;;;;;2.38;0.68;;;;;;;;;;4214224;28;20413;-59
2022/08/15 07:41:22;;;;;;;0.90;0.50;;;;;;;;;;4213472;28;20032;-59
2022/08/15 07:43:25;;;;;;;0.55;0.50;;;;;;;;;;4206952;28;20044;-60
2022/08/15 07:45:26;;;;;;;0.65;0.65;;;;;;;;;;4207027;28;20040;-60
2022/08/15 07:47:28;;;;;;;0.90;0.80;;;;;;;;;;4213512;28;20044;-60
2022/08/15 07:49:32;;;;;;;1.67;0.90;;;;;;;;;;4212414;28;20044;-59
2022/08/15 07:51:44;;;;;;;0.50;0.50;;;;;;;;;;4205596;28;20533;-59
2022/08/15 07:53:51;;;;;;;0.82;0.70;;;;;;;;;;4212704;28;20081;-59
2022/08/15 07:56:12;;;;;;;1.20;0.68;;;;;;;;;;4213355;28;20032;-60
2022/08/15 07:58:13;;;;;;;0.63;0.57;;;;;;;;;;4213437;28;20434;-60
2022/08/15 08:00:27;;;;;;;2.47;0.60;;;;;;;;;;4202142;28;20036;-59
2022/08/15 08:02:30;;;;;;;2.90;0.73;;;;;;;;;;4212925;28;20032;-60
2022/08/15 08:04:34;;;;;;;0.60;0.60;;;;;;;;;;4212863;28;20097;-60
2022/08/15 08:06:37;;;;;;;0.98;0.80;;;;;;;;;;4211830;28;20097;-59
2022/08/15 08:08:43;;;;;;;0.60;0.60;;;;;;;;;;4211479;28;20098;-59
2022/08/15 08:10:51;;;;;;;0.90;0.70;;;;;;;;;;4213070;28;20028;-59
2022/08/15 08:13:01;;;;;;;0.70;0.52;;;;;;;;;;4212416;28;20035;-59
2022/08/15 08:15:14;;;;;;;0.50;0.50;;;;;;;;;;4212247;28;20028;-60
2022/08/15 08:17:18;;;;;;;0.52;0.52;;;;;;;;;;4212974;28;20066;-60
2022/08/15 08:19:28;;;;;;;0.88;0.70;;;;;;;;;;4213070;28;20044;-59
2022/08/15 08:21:33;;;;;;;0.73;0.70;;;;;;;;;;4212641;28;20028;-59
2022/08/15 08:23:42;;;;;;;0.73;0.55;;;;;;;;;;4213273;28;20528;-60
2022/08/15 08:25:49;;;;;;;0.50;0.50;;;;;;;;;;4209878;28;20032;-59
2022/08/15 08:28:08;;;;;;;1.50;0.70;;;;;;;;;;4212276;28;20116;-60
2022/08/15 08:30:12;;;;;;;2.47;0.77;;;;;;;;;;4211910;28;20406;-60
2022/08/15 08:32:45;;;;;;;0.63;0.63;;;;;;;;;;4211696;28;20036;-60
2022/08/15 08:34:46;;;;;;;0.70;0.55;;;;;;;;;;4189456;28;20086;-59
2022/08/15 08:36:55;;;;;;;0.82;0.60;;;;;;;;;;4213552;28;20027;-60
2022/08/15 08:39:21;;;;;;;0.77;0.60;;;;;;;;;;4215160;28;20040;-60
2022/08/15 08:41:36;;;;;;;0.65;0.50;;;;;;;;;;4194127;28;20101;-60
2022/08/15 08:43:46;;;;;;;0.65;0.65;;;;;;;;;;4201706;28;20032;-60
2022/08/15 08:46:23;;;;;;;0.95;0.50;;;;;;;;;;4215372;28;20089;-60
2022/08/15 08:48:32;;;;;;;1.50;0.80;;;;;;;;;;4187290;28;20037;-59
2022/08/15 08:50:57;;;;;;;0.93;0.70;;;;;;;;;;4209368;28;20044;-60
2022/08/15 08:53:17;;;;;;;0.75;0.50;;;;;;;;;;4215209;28;20097;-59
2022/08/15 08:55:27;;;;;;;0.70;0.70;;;;;;;;;;4214406;28;20040;-59
2022/08/15 08:57:36;;;;;;;0.65;0.40;;;;;;;;;;4215215;28;20374;-60
2022/08/15 09:00:04;;;;;;;0.75;0.70;;;;;;;;;;4212880;28;21516;-59
2022/08/15 09:02:07;;;;;;;0.80;0.50;;;;;;;;;;4204968;28;20457;-60
2022/08/15 09:04:12;;;;;;;0.60;0.50;;;;;;;;;;4214633;28;20101;-60
2022/08/15 09:06:18;;;;;;;0.75;0.70;;;;;;;;;;4214780;28;20083;-59
2022/08/15 09:08:24;;;;;;;1.02;0.70;;;;;;;;;;4212613;28;20036;-59
2022/08/15 09:10:29;;;;;;;0.43;0.43;;;;;;;;;;4214395;28;20445;-60
2022/08/15 09:14:49;;;;;;;0.70;0.57;;;;;;;;;;4207125;28;20278;-60
2022/08/15 09:16:57;;;;;;;0.85;0.50;;;;;;;;;;4213873;28;20101;-60
2022/08/15 09:19:04;;;;;;;0.68;0.68;;;;;;;;;;4214867;28;20089;-60
2022/08/15 09:21:05;;;;;;;0.80;0.68;;;;;;;;;;4212775;28;20098;-60
2022/08/15 09:23:09;;;;;;;0.70;0.70;;;;;;;;;;4213832;28;20113;-59
2022/08/15 09:25:10;;;;;;;1.13;0.70;;;;;;;;;;4215479;28;20093;-60
2022/08/15 09:27:23;;;;;;;0.60;0.60;;;;;;;;;;4215457;28;20043;-59
2022/08/15 09:29:31;;;;;;;2.45;0.70;;;;;;;;;;4215352;28;20056;-59
2022/08/15 09:31:35;;;;;;;1.95;0.65;;;;;;;;;;4212333;28;20081;-60
2022/08/15 09:33:45;;;;;;;1.13;0.80;;;;;;;;;;4212623;28;20040;-59
2022/08/15 09:36:04;;;;;;;0.85;0.50;;;;;;;;;;4215391;28;20078;-59
2022/08/15 09:38:12;;;;;;;2.15;0.60;;;;;;;;;;4215436;28;20480;-60
2022/08/15 09:40:28;;;;;;;0.50;0.50;;;;;;;;;;4215467;28;20032;-61
2022/08/15 09:42:44;;;;;;;0.52;0.52;;;;;;;;;;4215238;28;20036;-61
2022/08/15 09:44:52;;;;;;;0.50;0.50;;;;;;;;;;4215130;28;20084;-60
2022/08/15 09:46:53;;;;;;;0.70;0.50;;;;;;;;;;4215057;28;20036;-60
2022/08/15 09:49:04;;;;;;;0.70;0.60;;;;;;;;;;4213553;28;20052;-60
2022/08/15 09:51:12;;;;;;;1.10;0.68;;;;;;;;;;4204856;28;20450;-60
2022/08/15 09:53:33;;;;;;;0.65;0.50;;;;;;;;;;4214928;28;20090;-60
2022/08/15 09:55:46;;;;;;;0.57;0.50;;;;;;;;;;4209699;28;20040;-61
2022/08/15 09:57:49;;;;;;;0.38;0.35;;;;;;;;;;4214652;28;20437;-60
2022/08/15 10:00:01;;;;;;;1.00;0.90;;;;;;;;;;4214742;28;20028;-60
2022/08/15 10:02:20;;;;;;;0.47;0.47;;;;;;;;;;4213870;28;20085;-60
2022/08/15 10:04:30;;;;;;;2.03;0.60;;;;;;;;;;4214238;28;20044;-60
2022/08/15 10:06:56;;;;;;;0.43;0.38;;;;;;;;;;4214140;28;20024;-60
2022/08/15 10:09:02;;;;;;;0.45;0.45;;;;;;;;;;4213346;28;20101;-60
2022/08/15 10:11:12;;;;;;;0.77;0.63;;;;;;;;;;4213333;28;20066;-60
2022/08/15 10:13:23;;;;;;;0.50;0.50;;;;;;;;;;4214076;28;20089;-60
2022/08/15 10:15:31;;;;;;;0.55;0.52;;;;;;;;;;4214150;28;20047;-61
2022/08/15 10:17:33;;;;;;;0.60;0.60;;;;;;;;;;4214782;28;20036;-60
2022/08/15 10:19:38;;;;;;;1.20;0.63;;;;;;;;;;4214298;28;20035;-61
2022/08/15 10:21:44;;;;;;;0.55;0.55;;;;;;;;;;4214059;28;20033;-61
2022/08/15 10:23:48;;;;;;;1.05;0.60;;;;;;;;;;4214329;28;20466;-61
2022/08/15 10:26:08;;;;;;;0.50;0.50;;;;;;;;;;4214481;28;20040;-61
2022/08/15 10:28:09;;;;;;;0.80;0.65;;;;;;;;;;4213516;28;20028;-60
2022/08/15 10:30:15;;;;;;;0.60;0.60;;;;;;;;;;4208570;28;20097;-60
2022/08/15 10:32:32;;;;;;;0.45;0.45;;;;;;;;;;4214227;28;20044;-59
2022/08/15 10:34:38;;;;;;;0.68;0.50;;;;;;;;;;4214363;28;20043;-60
2022/08/15 10:36:40;;;;;;;0.90;0.60;;;;;;;;;;4213132;28;20479;-61
2022/08/15 10:38:45;;;;;;;0.70;0.40;;;;;;;;;;4212888;28;20032;-60
2022/08/15 10:40:46;;;;;;;0.60;0.60;;;;;;;;;;4213313;28;20101;-61
2022/08/15 10:42:56;;;;;;;0.47;0.47;;;;;;;;;;4212610;28;20039;-60
2022/08/15 10:45:07;;;;;;;0.95;0.63;;;;;;;;;;4214275;28;20040;-60
2022/08/15 10:47:15;;;;;;;0.45;0.45;;;;;;;;;;4210037;28;20077;-61
2022/08/15 10:49:22;;;;;;;0.63;0.52;;;;;;;;;;4213709;28;20059;-61
2022/08/15 10:51:23;;;;;;;0.55;0.45;;;;;;;;;;4212569;28;20032;-60
2022/08/15 10:53:24;;;;;;;0.70;0.50;;;;;;;;;;4212603;28;20035;-61
2022/08/15 10:55:30;;;;;;;0.63;0.50;;;;;;;;;;4213937;28;20089;-60
2022/08/15 10:57:40;;;;;;;0.60;0.50;;;;;;;;;;4213468;28;20479;-59
2022/08/15 10:59:42;;;;;;;1.45;0.50;;;;;;;;;;4213786;28;20040;-60
2022/08/15 11:01:44;;;;;;;1.08;0.70;;;;;;;;;;4212953;28;20040;-60
2022/08/15 11:03:47;;;;;;;0.57;0.50;;;;;;;;;;4225548;28;20043;-60
2022/08/15 11:05:55;;;;;;;0.50;0.40;;;;;;;;;;4213984;28;20031;-62
2022/08/15 11:07:56;;;;;;;0.95;0.60;;;;;;;;;;4213774;28;20085;-60
2022/08/15 11:09:58;;;;;;;0.80;0.50;;;;;;;;;;4207721;28;20055;-59
2022/08/15 11:12:03;;;;;;;1.20;0.70;;;;;;;;;;4213401;28;20024;-62
2022/08/15 11:14:08;;;;;;;0.63;0.60;;;;;;;;;;4211191;28;20032;-61
2022/08/15 11:16:15;;;;;;;0.65;0.50;;;;;;;;;;4211082;28;20028;-60
2022/08/15 11:18:21;;;;;;;0.55;0.52;;;;;;;;;;4208073;28;20468;-61
2022/08/15 11:20:24;;;;;;;0.50;0.50;;;;;;;;;;4211042;28;20101;-61
2022/08/15 11:22:29;;;;;;;0.80;0.40;;;;;;;;;;4211509;28;20559;-60
2022/08/15 11:24:33;;;;;;;0.77;0.65;;;;;;;;;;4212688;28;20437;-60
2022/08/15 11:26:35;;;;;;;3.83;0.70;;;;;;;;;;4210599;28;20048;-60
2022/08/15 11:28:41;;;;;;;0.40;0.40;;;;;;;;;;4212744;28;20472;-59
2022/08/15 11:30:47;;;;;;;0.57;0.50;;;;;;;;;;4210881;28;20044;-59
2022/08/15 11:32:49;;;;;;;0.73;0.52;;;;;;;;;;4212243;28;20085;-59
2022/08/15 11:34:51;;;;;;;0.85;0.60;;;;;;;;;;4211052;28;20113;-60
2022/08/15 11:36:53;;;;;;;0.75;0.70;;;;;;;;;;4210424;28;20085;-60
2022/08/15 11:39:12;;;;;;;1.33;0.90;;;;;;;;;;4204315;28;20069;-60
2022/08/15 11:41:42;;;;;;;1.30;0.60;;;;;;;;;;4211095;28;20037;-60
2022/08/15 11:43:44;;;;;;;1.35;0.70;;;;;;;;;;4187999;28;20032;-61
2022/08/15 11:45:48;;;;;;;1.08;0.50;;;;;;;;;;4213032;28;20073;-61
2022/08/15 11:47:51;;;;;;;0.40;0.40;;;;;;;;;;4213345;28;20036;-61
2022/08/15 11:49:54;;;;;;;1.42;0.65;;;;;;;;;;4204872;28;20048;-60
2022/08/15 11:51:59;;;;;;;3.15;0.60;;;;;;;;;;4210502;28;20437;-60
2022/08/15 11:54:20;;;;;;;2.10;0.60;;;;;;;;;;4213020;28;20040;-60
2022/08/15 11:56:23;;;;;;;1.98;0.50;;;;;;;;;;4204075;28;20024;-60
2022/08/15 11:58:38;;;;;;;0.45;0.45;;;;;;;;;;4213244;28;20032;-60
2022/08/15 12:00:49;;;;;;;0.40;0.40;;;;;;;;;;4212993;28;20061;-60
2022/08/15 12:02:50;;;;;;;1.08;0.50;;;;;;;;;;4213309;28;20089;-60
2022/08/15 12:04:51;;;;;;;0.45;0.40;;;;;;;;;;4211292;28;20028;-61
2022/08/15 12:06:53;;;;;;;3.22;0.60;;;;;;;;;;4213797;28;20028;-60
2022/08/15 12:09:03;;;;;;;1.45;0.45;;;;;;;;;;4210328;28;20430;-60
2022/08/15 12:11:06;;;;;;;3.13;0.50;;;;;;;;;;4212222;28;20545;-61
2022/08/15 12:13:08;;;;;;;0.60;0.60;;;;;;;;;;4214466;28;20039;-60
2022/08/15 12:15:13;;;;;;;5.60;0.75;;;;;;;;;;4212742;28;20039;-60
2022/08/15 12:17:23;;;;;;;15.50;1.13;;;;;;;;;;4209788;28;20113;-60
2022/08/15 12:19:44;;;;;;;9.50;1.60;;;;;;;;;;4212273;28;20090;-60
2022/08/15 12:21:48;;;;;;;15.43;1.80;;;;;;;;;;4215369;28;20040;-60
2022/08/15 12:23:52;;;;;;;16.42;1.92;;;;;;;;;;4215711;28;20043;-60
2022/08/15 12:25:54;;;;;;;14.37;1.37;;;;;;;;;;4205753;28;20032;-59
2022/08/15 12:27:55;;;;;;;17.15;2.10;;;;;;;;;;4214733;28;20036;-60
2022/08/15 12:29:56;;;;;;;13.75;1.58;;;;;;;;;;4214109;28;20044;-60
2022/08/15 12:31:58;;;;;;;12.45;1.40;;;;;;;;;;4209270;28;20040;-59
2022/08/15 12:34:12;;;;;;;13.18;2.03;;;;;;;;;;4208348;28;20113;-59
2022/08/15 12:36:15;;;;;;;15.02;2.15;;;;;;;;;;4205248;28;20253;-59
2022/08/15 12:38:17;;;;;;;10.05;1.42;;;;;;;;;;4207644;28;20051;-59